sensor_id;sensor_type;location;lat;lon;timestamp;P1;durP1;ratioP1;P2;durP2;ratioP2
68921;SDS011;55959;51.244;5.724;2022-08-01T00:00:37;2.40;;;2.08;;
68921;SDS011;55959;51.244;5.724;2022-08-01T00:03:03;2.20;;;1.98;;
68921;SDS011;55959;51.244;5.724;2022-08-01T00:05:29;2.67;;;1.98;;
68921;SDS011;55959;51.244;5.724;2022-08-01T00:07:55;2.28;;;1.90;;
68921;SDS011;55959;51.244;5.724;2022-08-01T00:10:20;2.38;;;2.17;;
68921;SDS011;55959;51.244;5.724;2022-08-01T00:12:46;2.22;;;1.83;;
68921;SDS011;55959;51.244;5.724;2022-08-01T00:15:13;2.08;;;1.88;;
68921;SDS011;55959;51.244;5.724;2022-08-01T00:17:41;2.88;;;1.90;;
68921;SDS011;55959;51.244;5.724;2022-08-01T00:20:09;2.55;;;1.75;;
68921;SDS011;55959;51.244;5.724;2022-08-01T00:22:37;2.05;;;1.85;;
68921;SDS011;55959;51.244;5.724;2022-08-01T00:25:03;2.35;;;2.13;;
68921;SDS011;55959;51.244;5.724;2022-08-01T00:27:30;2.35;;;1.77;;
68921;SDS011;55959;51.244;5.724;2022-08-01T00:29:57;2.33;;;1.77;;
68921;SDS011;55959;51.244;5.724;2022-08-01T00:32:22;1.95;;;1.80;;
68921;SDS011;55959;51.244;5.724;2022-08-01T00:34:49;2.40;;;1.90;;
68921;SDS011;55959;51.244;5.724;2022-08-01T00:37:15;1.88;;;1.70;;
68921;SDS011;55959;51.244;5.724;2022-08-01T00:39:40;2.38;;;2.00;;
68921;SDS011;55959;51.244;5.724;2022-08-01T00:42:11;1.90;;;1.80;;
68921;SDS011;55959;51.244;5.724;2022-08-01T00:44:37;2.35;;;2.00;;
68921;SDS011;55959;51.244;5.724;2022-08-01T00:47:04;2.40;;;2.20;;
68921;SDS011;55959;51.244;5.724;2022-08-01T00:49:31;2.15;;;1.95;;
68921;SDS011;55959;51.244;5.724;2022-08-01T00:51:57;2.40;;;2.03;;
68921;SDS011;55959;51.244;5.724;2022-08-01T00:54:25;2.28;;;2.03;;
68921;SDS011;55959;51.244;5.724;2022-08-01T00:56:51;2.22;;;2.03;;
68921;SDS011;55959;51.244;5.724;2022-08-01T00:59:19;3.20;;;1.83;;
68921;SDS011;55959;51.244;5.724;2022-08-01T01:01:47;2.05;;;1.80;;
68921;SDS011;55959;51.244;5.724;2022-08-01T01:04:13;1.77;;;1.67;;
68921;SDS011;55959;51.244;5.724;2022-08-01T01:06:50;2.00;;;1.80;;
68921;SDS011;55959;51.244;5.724;2022-08-01T01:09:50;2.00;;;1.80;;
68921;SDS011;55959;51.244;5.724;2022-08-01T01:15:10;1.77;;;1.60;;
68921;SDS011;55959;51.244;5.724;2022-08-01T01:17:57;1.73;;;1.55;;
68921;SDS011;55959;51.244;5.724;2022-08-01T01:20:42;2.13;;;1.60;;
68921;SDS011;55959;51.244;5.724;2022-08-01T01:31:43;3.35;;;2.00;;
68921;SDS011;55959;51.244;5.724;2022-08-01T01:34:44;2.63;;;2.35;;
68921;SDS011;55959;51.244;5.724;2022-08-01T01:37:17;2.05;;;1.85;;
68921;SDS011;55959;51.244;5.724;2022-08-01T01:39:46;2.78;;;2.35;;
68921;SDS011;55959;51.244;5.724;2022-08-01T01:42:16;2.63;;;2.25;;
68921;SDS011;55959;51.244;5.724;2022-08-01T01:44:43;2.90;;;2.33;;
68921;SDS011;55959;51.244;5.724;2022-08-01T01:47:11;2.42;;;2.10;;
68921;SDS011;55959;51.244;5.724;2022-08-01T01:49:38;3.65;;;2.22;;
68921;SDS011;55959;51.244;5.724;2022-08-01T01:52:06;3.00;;;2.70;;
68921;SDS011;55959;51.244;5.724;2022-08-01T01:54:33;2.92;;;2.63;;
68921;SDS011;55959;51.244;5.724;2022-08-01T01:57:09;3.13;;;2.70;;
68921;SDS011;55959;51.244;5.724;2022-08-01T01:59:37;3.60;;;3.10;;
68921;SDS011;55959;51.244;5.724;2022-08-01T02:02:04;2.90;;;2.30;;
68921;SDS011;55959;51.244;5.724;2022-08-01T02:04:31;3.90;;;3.30;;
68921;SDS011;55959;51.244;5.724;2022-08-01T02:07:00;3.15;;;2.85;;
68921;SDS011;55959;51.244;5.724;2022-08-01T02:09:28;3.60;;;3.10;;
68921;SDS011;55959;51.244;5.724;2022-08-01T02:11:56;4.00;;;3.10;;
68921;SDS011;55959;51.244;5.724;2022-08-01T02:14:24;3.47;;;3.17;;
68921;SDS011;55959;51.244;5.724;2022-08-01T02:16:52;3.40;;;3.10;;
68921;SDS011;55959;51.244;5.724;2022-08-01T02:19:19;3.80;;;3.10;;
68921;SDS011;55959;51.244;5.724;2022-08-01T02:21:47;3.92;;;3.50;;
68921;SDS011;55959;51.244;5.724;2022-08-01T02:24:28;4.10;;;3.17;;
68921;SDS011;55959;51.244;5.724;2022-08-01T02:27:07;4.20;;;3.75;;
68921;SDS011;55959;51.244;5.724;2022-08-01T02:29:39;4.35;;;3.88;;
68921;SDS011;55959;51.244;5.724;2022-08-01T02:32:31;6.13;;;4.55;;
68921;SDS011;55959;51.244;5.724;2022-08-01T02:35:02;5.47;;;4.50;;
68921;SDS011;55959;51.244;5.724;2022-08-01T02:37:33;5.57;;;4.75;;
68921;SDS011;55959;51.244;5.724;2022-08-01T02:40:02;5.45;;;4.95;;
68921;SDS011;55959;51.244;5.724;2022-08-01T02:42:29;6.05;;;5.55;;
68921;SDS011;55959;51.244;5.724;2022-08-01T02:44:56;5.38;;;4.97;;
68921;SDS011;55959;51.244;5.724;2022-08-01T02:47:25;7.25;;;6.07;;
68921;SDS011;55959;51.244;5.724;2022-08-01T02:49:54;6.28;;;5.68;;
68921;SDS011;55959;51.244;5.724;2022-08-01T02:52:21;8.48;;;6.65;;
68921;SDS011;55959;51.244;5.724;2022-08-01T02:54:51;6.88;;;6.28;;
68921;SDS011;55959;51.244;5.724;2022-08-01T02:57:20;7.75;;;6.95;;
68921;SDS011;55959;51.244;5.724;2022-08-01T02:59:47;7.55;;;6.75;;
68921;SDS011;55959;51.244;5.724;2022-08-01T03:02:15;7.28;;;6.63;;
68921;SDS011;55959;51.244;5.724;2022-08-01T03:04:42;7.15;;;6.55;;
68921;SDS011;55959;51.244;5.724;2022-08-01T03:07:09;8.20;;;7.03;;
68921;SDS011;55959;51.244;5.724;2022-08-01T03:09:38;7.45;;;6.82;;
68921;SDS011;55959;51.244;5.724;2022-08-01T03:12:10;8.02;;;7.22;;
68921;SDS011;55959;51.244;5.724;2022-08-01T03:14:41;7.97;;;7.20;;
68921;SDS011;55959;51.244;5.724;2022-08-01T03:17:09;7.32;;;6.63;;
68921;SDS011;55959;51.244;5.724;2022-08-01T03:19:36;7.35;;;6.65;;
68921;SDS011;55959;51.244;5.724;2022-08-01T03:22:08;9.07;;;6.88;;
68921;SDS011;55959;51.244;5.724;2022-08-01T03:24:36;8.27;;;6.80;;
68921;SDS011;55959;51.244;5.724;2022-08-01T03:27:04;7.20;;;6.50;;
68921;SDS011;55959;51.244;5.724;2022-08-01T03:29:32;7.18;;;6.55;;
68921;SDS011;55959;51.244;5.724;2022-08-01T03:32:00;8.27;;;7.53;;
68921;SDS011;55959;51.244;5.724;2022-08-01T03:34:27;7.70;;;7.00;;
68921;SDS011;55959;51.244;5.724;2022-08-01T03:40:22;8.30;;;7.50;;
68921;SDS011;55959;51.244;5.724;2022-08-01T03:43:00;7.05;;;6.28;;
68921;SDS011;55959;51.244;5.724;2022-08-01T03:45:38;7.57;;;6.88;;
68921;SDS011;55959;51.244;5.724;2022-08-01T03:48:16;7.80;;;7.00;;
68921;SDS011;55959;51.244;5.724;2022-08-01T03:50:48;8.18;;;7.38;;
68921;SDS011;55959;51.244;5.724;2022-08-01T03:53:18;8.45;;;7.13;;
68921;SDS011;55959;51.244;5.724;2022-08-01T03:55:49;7.35;;;6.68;;
68921;SDS011;55959;51.244;5.724;2022-08-01T03:58:15;8.52;;;7.72;;
68921;SDS011;55959;51.244;5.724;2022-08-01T04:00:42;8.10;;;6.85;;
68921;SDS011;55959;51.244;5.724;2022-08-01T04:03:08;7.75;;;7.05;;
68921;SDS011;55959;51.244;5.724;2022-08-01T04:05:35;7.95;;;7.22;;
68921;SDS011;55959;51.244;5.724;2022-08-01T04:08:01;7.90;;;6.97;;
68921;SDS011;55959;51.244;5.724;2022-08-01T04:10:28;8.38;;;7.57;;
68921;SDS011;55959;51.244;5.724;2022-08-01T04:12:54;7.45;;;6.70;;
68921;SDS011;55959;51.244;5.724;2022-08-01T04:15:20;10.70;;;8.75;;
68921;SDS011;55959;51.244;5.724;2022-08-01T04:17:46;7.93;;;7.22;;
68921;SDS011;55959;51.244;5.724;2022-08-01T04:20:13;8.65;;;7.75;;
68921;SDS011;55959;51.244;5.724;2022-08-01T04:22:40;8.00;;;7.30;;
68921;SDS011;55959;51.244;5.724;2022-08-01T04:25:17;9.18;;;8.27;;
68921;SDS011;55959;51.244;5.724;2022-08-01T04:27:53;8.63;;;7.82;;
68921;SDS011;55959;51.244;5.724;2022-08-01T04:30:22;9.70;;;8.23;;
68921;SDS011;55959;51.244;5.724;2022-08-01T04:32:54;9.02;;;8.10;;
68921;SDS011;55959;51.244;5.724;2022-08-01T04:35:22;9.18;;;8.20;;
68921;SDS011;55959;51.244;5.724;2022-08-01T04:37:50;10.40;;;8.68;;
68921;SDS011;55959;51.244;5.724;2022-08-01T04:40:16;9.75;;;8.65;;
68921;SDS011;55959;51.244;5.724;2022-08-01T04:42:42;9.88;;;8.88;;
68921;SDS011;55959;51.244;5.724;2022-08-01T04:45:08;8.75;;;7.95;;
68921;SDS011;55959;51.244;5.724;2022-08-01T04:47:35;8.35;;;7.60;;
68921;SDS011;55959;51.244;5.724;2022-08-01T04:50:06;8.52;;;7.72;;
68921;SDS011;55959;51.244;5.724;2022-08-01T04:52:33;10.25;;;9.10;;
68921;SDS011;55959;51.244;5.724;2022-08-01T04:55:00;9.45;;;8.55;;
68921;SDS011;55959;51.244;5.724;2022-08-01T04:57:26;8.50;;;7.70;;
68921;SDS011;55959;51.244;5.724;2022-08-01T04:59:52;9.27;;;8.32;;
68921;SDS011;55959;51.244;5.724;2022-08-01T05:02:21;8.73;;;7.90;;
68921;SDS011;55959;51.244;5.724;2022-08-01T05:04:48;8.82;;;7.85;;
68921;SDS011;55959;51.244;5.724;2022-08-01T05:07:14;8.93;;;8.07;;
68921;SDS011;55959;51.244;5.724;2022-08-01T05:09:40;8.88;;;8.07;;
68921;SDS011;55959;51.244;5.724;2022-08-01T05:12:07;8.80;;;8.02;;
68921;SDS011;55959;51.244;5.724;2022-08-01T05:14:34;8.77;;;7.97;;
68921;SDS011;55959;51.244;5.724;2022-08-01T05:17:04;8.30;;;7.43;;
68921;SDS011;55959;51.244;5.724;2022-08-01T05:19:32;7.97;;;7.28;;
68921;SDS011;55959;51.244;5.724;2022-08-01T05:22:04;7.55;;;6.75;;
68921;SDS011;55959;51.244;5.724;2022-08-01T05:24:36;7.70;;;7.00;;
68921;SDS011;55959;51.244;5.724;2022-08-01T05:27:04;8.25;;;7.45;;
68921;SDS011;55959;51.244;5.724;2022-08-01T05:29:31;9.35;;;8.20;;
68921;SDS011;55959;51.244;5.724;2022-08-01T05:31:57;8.65;;;7.85;;
68921;SDS011;55959;51.244;5.724;2022-08-01T05:34:24;9.93;;;8.82;;
68921;SDS011;55959;51.244;5.724;2022-08-01T05:36:51;9.60;;;8.73;;
68921;SDS011;55959;51.244;5.724;2022-08-01T05:39:16;10.07;;;9.07;;
68921;SDS011;55959;51.244;5.724;2022-08-01T05:41:42;9.65;;;8.60;;
68921;SDS011;55959;51.244;5.724;2022-08-01T05:44:09;8.75;;;7.82;;
68921;SDS011;55959;51.244;5.724;2022-08-01T05:46:34;9.65;;;8.75;;
68921;SDS011;55959;51.244;5.724;2022-08-01T05:49:01;10.45;;;9.32;;
68921;SDS011;55959;51.244;5.724;2022-08-01T05:51:28;10.07;;;9.07;;
68921;SDS011;55959;51.244;5.724;2022-08-01T05:53:54;9.77;;;8.85;;
68921;SDS011;55959;51.244;5.724;2022-08-01T05:56:21;12.15;;;9.57;;
68921;SDS011;55959;51.244;5.724;2022-08-01T05:58:47;10.60;;;9.52;;
68921;SDS011;55959;51.244;5.724;2022-08-01T06:01:14;10.52;;;9.52;;
68921;SDS011;55959;51.244;5.724;2022-08-01T06:03:41;9.80;;;8.80;;
68921;SDS011;55959;51.244;5.724;2022-08-01T06:06:07;9.23;;;8.30;;
68921;SDS011;55959;51.244;5.724;2022-08-01T06:08:33;8.95;;;8.15;;
68921;SDS011;55959;51.244;5.724;2022-08-01T06:10:58;8.48;;;7.68;;
68921;SDS011;55959;51.244;5.724;2022-08-01T06:13:24;9.00;;;8.10;;
68921;SDS011;55959;51.244;5.724;2022-08-01T06:15:50;9.20;;;8.27;;
68921;SDS011;55959;51.244;5.724;2022-08-01T06:18:16;10.48;;;9.05;;
68921;SDS011;55959;51.244;5.724;2022-08-01T06:20:42;9.98;;;9.07;;
68921;SDS011;55959;51.244;5.724;2022-08-01T06:23:08;10.05;;;9.02;;
68921;SDS011;55959;51.244;5.724;2022-08-01T06:25:34;10.52;;;9.55;;
68921;SDS011;55959;51.244;5.724;2022-08-01T06:28:00;9.95;;;8.95;;
68921;SDS011;55959;51.244;5.724;2022-08-01T06:30:26;9.77;;;8.88;;
68921;SDS011;55959;51.244;5.724;2022-08-01T06:32:52;10.35;;;9.25;;
68921;SDS011;55959;51.244;5.724;2022-08-01T06:35:21;11.15;;;10.13;;
68921;SDS011;55959;51.244;5.724;2022-08-01T06:37:46;10.27;;;9.27;;
68921;SDS011;55959;51.244;5.724;2022-08-01T06:40:13;10.73;;;9.73;;
68921;SDS011;55959;51.244;5.724;2022-08-01T06:42:39;10.55;;;9.55;;
68921;SDS011;55959;51.244;5.724;2022-08-01T06:45:06;10.88;;;9.88;;
68921;SDS011;55959;51.244;5.724;2022-08-01T06:47:34;10.77;;;9.68;;
68921;SDS011;55959;51.244;5.724;2022-08-01T06:50:05;9.82;;;8.93;;
68921;SDS011;55959;51.244;5.724;2022-08-01T06:52:33;9.85;;;8.85;;
68921;SDS011;55959;51.244;5.724;2022-08-01T06:54:59;10.32;;;9.32;;
68921;SDS011;55959;51.244;5.724;2022-08-01T06:57:25;10.00;;;9.00;;
68921;SDS011;55959;51.244;5.724;2022-08-01T06:59:51;8.93;;;8.13;;
68921;SDS011;55959;51.244;5.724;2022-08-01T07:02:18;9.13;;;8.25;;
68921;SDS011;55959;51.244;5.724;2022-08-01T07:04:43;9.20;;;8.30;;
68921;SDS011;55959;51.244;5.724;2022-08-01T07:07:09;9.30;;;8.50;;
68921;SDS011;55959;51.244;5.724;2022-08-01T07:09:35;12.25;;;10.60;;
68921;SDS011;55959;51.244;5.724;2022-08-01T07:12:01;9.57;;;8.68;;
68921;SDS011;55959;51.244;5.724;2022-08-01T07:14:29;9.00;;;8.10;;
68921;SDS011;55959;51.244;5.724;2022-08-01T07:16:54;9.77;;;8.88;;
68921;SDS011;55959;51.244;5.724;2022-08-01T07:19:20;8.45;;;7.70;;
68921;SDS011;55959;51.244;5.724;2022-08-01T07:21:46;9.18;;;8.38;;
68921;SDS011;55959;51.244;5.724;2022-08-01T07:24:12;8.70;;;7.78;;
68921;SDS011;55959;51.244;5.724;2022-08-01T07:26:43;8.55;;;7.65;;
68921;SDS011;55959;51.244;5.724;2022-08-01T07:29:12;8.73;;;7.93;;
68921;SDS011;55959;51.244;5.724;2022-08-01T07:31:38;8.48;;;7.78;;
68921;SDS011;55959;51.244;5.724;2022-08-01T07:34:03;8.80;;;8.00;;
68921;SDS011;55959;51.244;5.724;2022-08-01T07:36:29;7.35;;;6.75;;
68921;SDS011;55959;51.244;5.724;2022-08-01T07:38:55;7.10;;;6.43;;
68921;SDS011;55959;51.244;5.724;2022-08-01T07:41:21;5.35;;;4.90;;
68921;SDS011;55959;51.244;5.724;2022-08-01T07:43:47;5.43;;;4.93;;
68921;SDS011;55959;51.244;5.724;2022-08-01T07:46:14;5.35;;;4.90;;
68921;SDS011;55959;51.244;5.724;2022-08-01T07:48:40;5.10;;;4.70;;
68921;SDS011;55959;51.244;5.724;2022-08-01T07:51:06;6.25;;;5.65;;
68921;SDS011;55959;51.244;5.724;2022-08-01T07:53:33;4.70;;;4.28;;
68921;SDS011;55959;51.244;5.724;2022-08-01T07:55:59;3.03;;;2.80;;
68921;SDS011;55959;51.244;5.724;2022-08-01T07:58:27;2.78;;;2.58;;
68921;SDS011;55959;51.244;5.724;2022-08-01T08:00:53;2.60;;;2.40;;
68921;SDS011;55959;51.244;5.724;2022-08-01T08:03:18;2.38;;;2.17;;
68921;SDS011;55959;51.244;5.724;2022-08-01T08:05:44;2.72;;;2.53;;
68921;SDS011;55959;51.244;5.724;2022-08-01T08:08:10;3.17;;;2.63;;
68921;SDS011;55959;51.244;5.724;2022-08-01T08:10:36;3.13;;;2.75;;
68921;SDS011;55959;51.244;5.724;2022-08-01T08:13:02;2.42;;;2.22;;
68921;SDS011;55959;51.244;5.724;2022-08-01T08:15:28;2.95;;;2.42;;
68921;SDS011;55959;51.244;5.724;2022-08-01T08:17:54;2.88;;;2.47;;
68921;SDS011;55959;51.244;5.724;2022-08-01T08:20:20;3.13;;;2.80;;
68921;SDS011;55959;51.244;5.724;2022-08-01T08:22:54;2.92;;;2.33;;
68921;SDS011;55959;51.244;5.724;2022-08-01T08:25:21;2.65;;;2.17;;
68921;SDS011;55959;51.244;5.724;2022-08-01T08:27:47;2.33;;;2.13;;
68921;SDS011;55959;51.244;5.724;2022-08-01T08:30:13;2.22;;;2.03;;
68921;SDS011;55959;51.244;5.724;2022-08-01T08:32:39;1.73;;;1.63;;
68921;SDS011;55959;51.244;5.724;2022-08-01T08:35:05;2.53;;;2.08;;
68921;SDS011;55959;51.244;5.724;2022-08-01T08:37:33;2.53;;;2.33;;
68921;SDS011;55959;51.244;5.724;2022-08-01T08:40:00;2.40;;;2.20;;
68921;SDS011;55959;51.244;5.724;2022-08-01T08:42:28;2.70;;;2.50;;
68921;SDS011;55959;51.244;5.724;2022-08-01T08:44:54;1.67;;;1.58;;
68921;SDS011;55959;51.244;5.724;2022-08-01T08:47:20;1.73;;;1.63;;
68921;SDS011;55959;51.244;5.724;2022-08-01T08:49:52;1.73;;;1.50;;
68921;SDS011;55959;51.244;5.724;2022-08-01T08:52:20;1.40;;;1.30;;
68921;SDS011;55959;51.244;5.724;2022-08-01T08:54:47;1.63;;;1.23;;
68921;SDS011;55959;51.244;5.724;2022-08-01T08:57:15;1.40;;;1.25;;
68921;SDS011;55959;51.244;5.724;2022-08-01T08:59:43;1.60;;;1.50;;
68921;SDS011;55959;51.244;5.724;2022-08-01T09:02:09;1.65;;;1.40;;
68921;SDS011;55959;51.244;5.724;2022-08-01T09:04:36;1.30;;;1.20;;
68921;SDS011;55959;51.244;5.724;2022-08-01T09:07:04;1.45;;;1.20;;
68921;SDS011;55959;51.244;5.724;2022-08-01T09:09:30;1.38;;;1.17;;
68921;SDS011;55959;51.244;5.724;2022-08-01T09:11:57;0.60;;;0.60;;
68921;SDS011;55959;51.244;5.724;2022-08-01T09:14:23;1.02;;;0.95;;
68921;SDS011;55959;51.244;5.724;2022-08-01T09:19:36;1.00;;;0.90;;
68921;SDS011;55959;51.244;5.724;2022-08-01T09:22:15;1.25;;;1.00;;
68921;SDS011;55959;51.244;5.724;2022-08-01T09:24:56;1.45;;;1.20;;
68921;SDS011;55959;51.244;5.724;2022-08-01T09:27:32;1.38;;;1.08;;
68921;SDS011;55959;51.244;5.724;2022-08-01T09:32:58;1.30;;;1.20;;
68921;SDS011;55959;51.244;5.724;2022-08-01T09:43:18;1.00;;;0.90;;
68921;SDS011;55959;51.244;5.724;2022-08-01T09:45:45;1.73;;;1.25;;
68921;SDS011;55959;51.244;5.724;2022-08-01T09:48:11;1.25;;;1.10;;
68921;SDS011;55959;51.244;5.724;2022-08-01T09:50:44;1.27;;;1.17;;
68921;SDS011;55959;51.244;5.724;2022-08-01T09:53:12;1.30;;;1.20;;
68921;SDS011;55959;51.244;5.724;2022-08-01T09:55:39;1.90;;;1.40;;
68921;SDS011;55959;51.244;5.724;2022-08-01T09:58:06;1.40;;;1.30;;
68921;SDS011;55959;51.244;5.724;2022-08-01T10:00:33;1.20;;;1.10;;
68921;SDS011;55959;51.244;5.724;2022-08-01T10:03:01;1.30;;;1.20;;
68921;SDS011;55959;51.244;5.724;2022-08-01T10:05:49;1.40;;;1.30;;
68921;SDS011;55959;51.244;5.724;2022-08-01T10:08:16;1.30;;;1.20;;
68921;SDS011;55959;51.244;5.724;2022-08-01T10:10:43;1.50;;;1.40;;
68921;SDS011;55959;51.244;5.724;2022-08-01T10:13:36;1.55;;;1.35;;
68921;SDS011;55959;51.244;5.724;2022-08-01T10:16:03;1.58;;;1.48;;
68921;SDS011;55959;51.244;5.724;2022-08-01T10:18:31;1.50;;;1.40;;
68921;SDS011;55959;51.244;5.724;2022-08-01T10:20:58;1.85;;;1.60;;
68921;SDS011;55959;51.244;5.724;2022-08-01T10:23:30;1.58;;;1.48;;
68921;SDS011;55959;51.244;5.724;2022-08-01T10:26:00;1.67;;;1.58;;
68921;SDS011;55959;51.244;5.724;2022-08-01T10:28:28;1.88;;;1.77;;
68921;SDS011;55959;51.244;5.724;2022-08-01T10:30:59;2.65;;;1.85;;
68921;SDS011;55959;51.244;5.724;2022-08-01T10:33:25;1.48;;;1.38;;
68921;SDS011;55959;51.244;5.724;2022-08-01T10:35:51;1.98;;;1.88;;
68921;SDS011;55959;51.244;5.724;2022-08-01T10:38:17;2.03;;;1.92;;
68921;SDS011;55959;51.244;5.724;2022-08-01T10:40:43;1.70;;;1.60;;
68921;SDS011;55959;51.244;5.724;2022-08-01T10:43:10;1.88;;;1.77;;
68921;SDS011;55959;51.244;5.724;2022-08-01T10:45:37;2.95;;;1.98;;
68921;SDS011;55959;51.244;5.724;2022-08-01T10:51:02;1.90;;;1.80;;
68921;SDS011;55959;51.244;5.724;2022-08-01T10:53:29;1.48;;;1.38;;
68921;SDS011;55959;51.244;5.724;2022-08-01T10:58:25;1.33;;;1.17;;
68921;SDS011;55959;51.244;5.724;2022-08-01T11:01:18;1.27;;;1.20;;
68921;SDS011;55959;51.244;5.724;2022-08-01T11:25:25;0.85;;;0.85;;
68921;SDS011;55959;51.244;5.724;2022-08-01T11:30:41;0.52;;;0.52;;
68921;SDS011;55959;51.244;5.724;2022-08-01T11:41:35;0.50;;;0.50;;
68921;SDS011;55959;51.244;5.724;2022-08-01T11:44:08;0.70;;;0.70;;
68921;SDS011;55959;51.244;5.724;2022-08-01T11:57:27;0.30;;;0.30;;
68921;SDS011;55959;51.244;5.724;2022-08-01T11:59:56;0.50;;;0.40;;
68921;SDS011;55959;51.244;5.724;2022-08-01T12:02:24;0.50;;;0.50;;
68921;SDS011;55959;51.244;5.724;2022-08-01T12:07:26;0.63;;;0.50;;
68921;SDS011;55959;51.244;5.724;2022-08-01T12:10:16;0.47;;;0.40;;
68921;SDS011;55959;51.244;5.724;2022-08-01T12:12:44;0.88;;;0.63;;
68921;SDS011;55959;51.244;5.724;2022-08-01T12:15:17;1.55;;;0.60;;
68921;SDS011;55959;51.244;5.724;2022-08-01T12:18:02;0.50;;;0.50;;
68921;SDS011;55959;51.244;5.724;2022-08-01T12:20:31;0.88;;;0.68;;
68921;SDS011;55959;51.244;5.724;2022-08-01T12:23:08;1.40;;;0.80;;
68921;SDS011;55959;51.244;5.724;2022-08-01T12:25:38;0.75;;;0.75;;
68921;SDS011;55959;51.244;5.724;2022-08-01T12:28:06;0.73;;;0.73;;
68921;SDS011;55959;51.244;5.724;2022-08-01T12:30:34;1.42;;;0.90;;
68921;SDS011;55959;51.244;5.724;2022-08-01T12:33:01;2.05;;;1.00;;
68921;SDS011;55959;51.244;5.724;2022-08-01T12:35:33;1.63;;;0.90;;
68921;SDS011;55959;51.244;5.724;2022-08-01T12:38:02;1.15;;;1.02;;
68921;SDS011;55959;51.244;5.724;2022-08-01T12:40:40;0.77;;;0.70;;
68921;SDS011;55959;51.244;5.724;2022-08-01T12:43:09;1.30;;;1.00;;
68921;SDS011;55959;51.244;5.724;2022-08-01T12:45:38;0.90;;;0.70;;
68921;SDS011;55959;51.244;5.724;2022-08-01T12:48:08;0.85;;;0.85;;
68921;SDS011;55959;51.244;5.724;2022-08-01T12:50:37;1.08;;;0.90;;
68921;SDS011;55959;51.244;5.724;2022-08-01T12:53:05;1.55;;;1.20;;
68921;SDS011;55959;51.244;5.724;2022-08-01T12:55:31;1.05;;;0.82;;
68921;SDS011;55959;51.244;5.724;2022-08-01T12:58:10;1.23;;;0.90;;
68921;SDS011;55959;51.244;5.724;2022-08-01T13:00:39;1.25;;;0.80;;
68921;SDS011;55959;51.244;5.724;2022-08-01T13:03:08;2.10;;;1.10;;
68921;SDS011;55959;51.244;5.724;2022-08-01T13:05:46;1.08;;;0.98;;
68921;SDS011;55959;51.244;5.724;2022-08-01T13:11:08;0.70;;;0.70;;
68921;SDS011;55959;51.244;5.724;2022-08-01T13:13:41;1.05;;;0.80;;
68921;SDS011;55959;51.244;5.724;2022-08-01T13:16:09;0.98;;;0.73;;
68921;SDS011;55959;51.244;5.724;2022-08-01T13:18:36;0.90;;;0.70;;
68921;SDS011;55959;51.244;5.724;2022-08-01T13:23:40;1.40;;;0.88;;
68921;SDS011;55959;51.244;5.724;2022-08-01T13:26:47;0.80;;;0.80;;
68921;SDS011;55959;51.244;5.724;2022-08-01T13:29:19;1.50;;;0.90;;
68921;SDS011;55959;51.244;5.724;2022-08-01T13:31:48;1.38;;;0.80;;
68921;SDS011;55959;51.244;5.724;2022-08-01T13:34:15;1.00;;;0.80;;
68921;SDS011;55959;51.244;5.724;2022-08-01T13:36:41;1.48;;;0.90;;
68921;SDS011;55959;51.244;5.724;2022-08-01T13:39:07;0.80;;;0.80;;
68921;SDS011;55959;51.244;5.724;2022-08-01T13:41:51;0.80;;;0.80;;
68921;SDS011;55959;51.244;5.724;2022-08-01T13:44:17;1.25;;;0.90;;
68921;SDS011;55959;51.244;5.724;2022-08-01T13:46:44;0.90;;;0.80;;
68921;SDS011;55959;51.244;5.724;2022-08-01T13:49:12;1.65;;;0.93;;
68921;SDS011;55959;51.244;5.724;2022-08-01T13:51:38;0.73;;;0.63;;
68921;SDS011;55959;51.244;5.724;2022-08-01T13:54:04;0.70;;;0.70;;
68921;SDS011;55959;51.244;5.724;2022-08-01T13:56:31;1.30;;;0.70;;
68921;SDS011;55959;51.244;5.724;2022-08-01T13:58:57;1.58;;;0.98;;
68921;SDS011;55959;51.244;5.724;2022-08-01T14:01:24;1.60;;;1.00;;
68921;SDS011;55959;51.244;5.724;2022-08-01T14:03:50;1.45;;;0.73;;
68921;SDS011;55959;51.244;5.724;2022-08-01T14:06:16;1.23;;;0.90;;
68921;SDS011;55959;51.244;5.724;2022-08-01T14:08:43;1.50;;;0.75;;
68921;SDS011;55959;51.244;5.724;2022-08-01T14:11:10;1.00;;;0.82;;
68921;SDS011;55959;51.244;5.724;2022-08-01T14:13:36;1.92;;;1.00;;
68921;SDS011;55959;51.244;5.724;2022-08-01T14:16:03;1.23;;;0.80;;
68921;SDS011;55959;51.244;5.724;2022-08-01T14:18:30;1.30;;;0.70;;
68921;SDS011;55959;51.244;5.724;2022-08-01T14:20:56;1.55;;;0.70;;
68921;SDS011;55959;51.244;5.724;2022-08-01T14:23:22;1.10;;;0.70;;
68921;SDS011;55959;51.244;5.724;2022-08-01T14:25:48;1.48;;;0.60;;
68921;SDS011;55959;51.244;5.724;2022-08-01T14:28:13;0.80;;;0.80;;
68921;SDS011;55959;51.244;5.724;2022-08-01T14:30:39;1.23;;;1.00;;
68921;SDS011;55959;51.244;5.724;2022-08-01T14:33:07;0.70;;;0.60;;
68921;SDS011;55959;51.244;5.724;2022-08-01T14:35:34;1.20;;;0.80;;
68921;SDS011;55959;51.244;5.724;2022-08-01T14:38:00;0.88;;;0.63;;
68921;SDS011;55959;51.244;5.724;2022-08-01T14:40:25;3.47;;;1.20;;
68921;SDS011;55959;51.244;5.724;2022-08-01T14:42:51;1.15;;;0.80;;
68921;SDS011;55959;51.244;5.724;2022-08-01T14:45:17;1.08;;;0.70;;
68921;SDS011;55959;51.244;5.724;2022-08-01T14:47:43;1.45;;;1.00;;
68921;SDS011;55959;51.244;5.724;2022-08-01T14:50:11;1.05;;;0.75;;
68921;SDS011;55959;51.244;5.724;2022-08-01T14:52:39;1.10;;;0.80;;
68921;SDS011;55959;51.244;5.724;2022-08-01T14:55:07;2.10;;;1.00;;
68921;SDS011;55959;51.244;5.724;2022-08-01T14:57:34;1.95;;;1.17;;
68921;SDS011;55959;51.244;5.724;2022-08-01T15:00:01;1.00;;;0.88;;
68921;SDS011;55959;51.244;5.724;2022-08-01T15:02:29;1.40;;;0.95;;
68921;SDS011;55959;51.244;5.724;2022-08-01T15:04:55;1.75;;;1.02;;
68921;SDS011;55959;51.244;5.724;2022-08-01T15:07:21;2.15;;;0.90;;
68921;SDS011;55959;51.244;5.724;2022-08-01T15:09:47;0.98;;;0.80;;
68921;SDS011;55959;51.244;5.724;2022-08-01T15:12:12;1.73;;;0.98;;
68921;SDS011;55959;51.244;5.724;2022-08-01T15:14:38;1.20;;;1.00;;
68921;SDS011;55959;51.244;5.724;2022-08-01T15:17:18;1.75;;;1.00;;
68921;SDS011;55959;51.244;5.724;2022-08-01T15:19:56;1.15;;;0.93;;
68921;SDS011;55959;51.244;5.724;2022-08-01T15:22:23;1.23;;;0.88;;
68921;SDS011;55959;51.244;5.724;2022-08-01T15:24:51;1.42;;;1.10;;
68921;SDS011;55959;51.244;5.724;2022-08-01T15:27:17;1.65;;;0.95;;
68921;SDS011;55959;51.244;5.724;2022-08-01T15:29:44;2.08;;;0.80;;
68921;SDS011;55959;51.244;5.724;2022-08-01T15:32:10;2.13;;;1.00;;
68921;SDS011;55959;51.244;5.724;2022-08-01T15:34:36;1.73;;;0.90;;
68921;SDS011;55959;51.244;5.724;2022-08-01T15:37:04;2.42;;;1.00;;
68921;SDS011;55959;51.244;5.724;2022-08-01T15:39:31;2.05;;;1.13;;
68921;SDS011;55959;51.244;5.724;2022-08-01T15:42:05;1.60;;;0.80;;
68921;SDS011;55959;51.244;5.724;2022-08-01T15:44:35;2.17;;;1.17;;
68921;SDS011;55959;51.244;5.724;2022-08-01T15:47:01;1.50;;;0.90;;
68921;SDS011;55959;51.244;5.724;2022-08-01T15:49:28;1.38;;;0.95;;
68921;SDS011;55959;51.244;5.724;2022-08-01T15:51:55;1.77;;;1.00;;
68921;SDS011;55959;51.244;5.724;2022-08-01T15:54:21;2.42;;;1.20;;
68921;SDS011;55959;51.244;5.724;2022-08-01T15:56:47;1.98;;;0.95;;
68921;SDS011;55959;51.244;5.724;2022-08-01T15:59:12;1.63;;;1.10;;
68921;SDS011;55959;51.244;5.724;2022-08-01T16:01:39;2.42;;;1.30;;
68921;SDS011;55959;51.244;5.724;2022-08-01T16:04:06;1.83;;;1.00;;
68921;SDS011;55959;51.244;5.724;2022-08-01T16:06:33;1.40;;;0.85;;
68921;SDS011;55959;51.244;5.724;2022-08-01T16:09:00;2.25;;;1.17;;
68921;SDS011;55959;51.244;5.724;2022-08-01T16:11:25;2.20;;;1.23;;
68921;SDS011;55959;51.244;5.724;2022-08-01T16:13:55;1.50;;;1.00;;
68921;SDS011;55959;51.244;5.724;2022-08-01T16:16:21;1.63;;;0.98;;
68921;SDS011;55959;51.244;5.724;2022-08-01T16:18:47;2.15;;;1.13;;
68921;SDS011;55959;51.244;5.724;2022-08-01T16:21:13;1.60;;;1.30;;